Time;durP1;ratioP1;P1;durP2;ratioP2;P2;SDS_P1;SDS_P2;PMS_P1;PMS_P2;Temp;Humidity;BMP_temperature;BMP_pressure;BME280_temperature;BME280_humidity;BME280_pressure;Samples;Min_cycle;Max_cycle;Signal;HPM_P1;HPM_P2
2021/04/27 00:01:33;;;;;;;;;;;;;;;-0.87;46.89;101134.53;1663785;85;20261;-72
2021/04/27 00:03:59;;;;;;;;;;;;;;;-0.90;46.97;101134.41;1690882;83;21289;-72
2021/04/27 00:06:25;;;;;;;;;;;;;;;-0.95;46.94;101133.37;1683138;83;20175;-72
2021/04/27 00:08:52;;;;;;;;;;;;;;;-0.97;47.05;101127.38;1684060;83;20273;-72
2021/04/27 00:11:18;;;;;;;;;;;;;;;-0.99;47.15;101127.71;1692305;83;20144;-72
2021/04/27 00:13:46;;;;;;;;;;;;;;;-1.02;47.19;101131.00;1687086;85;20147;-72
2021/04/27 00:16:12;;;;;;;;;;;;;;;-1.03;47.28;101129.27;1641482;86;20172;-72
2021/04/27 00:18:38;;;;;;;;;;;;;;;-1.05;47.31;101133.45;1627439;87;20210;-72
2021/04/27 00:21:05;;;;;;;;;;;;;;;-1.07;47.27;101127.84;1683772;83;20262;-72
2021/04/27 00:23:31;;;;;;;;;;;;;;;-1.10;47.44;101130.27;1697073;83;20244;-72
2021/04/27 00:25:57;;;;;;;;;;;;;;;-1.11;47.44;101121.78;1686938;83;20352;-72
2021/04/27 00:28:24;;;;;;;;;;;;;;;-1.10;47.51;101123.92;1681377;83;20257;-72
2021/04/27 00:30:50;;;;;;;;;;;;;;;-1.08;47.52;101121.05;1671623;85;20202;-72
2021/04/27 00:33:17;;;;;;;;;;;;;;;-1.09;47.49;101119.31;1620416;86;20265;-72
2021/04/27 00:35:43;;;;;;;;;;;;;;;-1.11;47.56;101120.92;1672676;84;20275;-72
2021/04/27 00:38:09;;;;;;;;;;;;;;;-1.14;47.60;101111.92;1620541;86;20279;-72
2021/04/27 00:40:35;;;;;;;;;;;;;;;-1.16;47.62;101119.88;1667950;84;20265;-72
2021/04/27 00:43:02;;;;;;;;;;;;;;;-1.19;47.66;101114.28;1645946;85;20233;-72
2021/04/27 00:45:29;;;;;;;;;;;;;;;-1.20;47.70;101111.68;1680057;84;20251;-72
2021/04/27 00:47:56;;;;;;;;;;;;;;;-1.25;47.74;101110.23;1685741;84;20531;-72
2021/04/27 00:50:25;;;;;;;;;;;;;;;-1.27;47.89;101111.84;1666132;84;21052;-72
2021/04/27 00:52:52;;;;;;;;;;;;;;;-1.28;47.92;101111.78;1655092;85;20258;-72
2021/04/27 00:55:18;;;;;;;;;;;;;;;-1.31;48.05;101107.45;1643545;85;20295;-72
2021/04/27 00:57:44;;;;;;;;;;;;;;;-1.29;48.09;101107.11;1662822;85;20285;-72
2021/04/27 01:00:14;;;;;;;;;;;;;;;-1.32;48.16;101104.45;1654180;85;20269;-72
2021/04/27 01:02:40;;;;;;;;;;;;;;;-1.33;48.25;101107.79;1645374;85;20276;-72
2021/04/27 01:05:09;;;;;;;;;;;;;;;-1.35;48.29;101103.06;1672675;85;20164;-72
2021/04/27 01:07:37;;;;;;;;;;;;;;;-1.36;48.29;101104.73;1663305;85;20276;-72
2021/04/27 01:10:06;;;;;;;;;;;;;;;-1.35;48.39;101101.79;1651353;85;20297;-72
2021/04/27 01:12:36;;;;;;;;;;;;;;;-1.40;48.42;101096.53;1652612;85;20320;-72
2021/04/27 01:15:10;;;;;;;;;;;;;;;-1.41;48.40;101098.61;1656499;85;20227;-72
2021/04/27 01:17:37;;;;;;;;;;;;;;;-1.42;48.50;101099.41;1645976;85;20287;-72
2021/04/27 01:20:07;;;;;;;;;;;;;;;-1.41;48.54;101101.14;1615893;86;20290;-72
2021/04/27 01:22:54;;;;;;;;;;;;;;;-1.40;48.59;101094.00;1639458;85;20258;-72
2021/04/27 01:25:51;;;;;;;;;;;;;;;-1.40;48.52;101095.27;1648941;85;20603;-72
2021/04/27 01:28:19;;;;;;;;;;;;;;;-1.39;48.51;101099.53;1665140;85;20317;-72
2021/04/27 01:30:46;;;;;;;;;;;;;;;-1.39;48.51;101092.33;1658296;85;20171;-72
2021/04/27 01:33:15;;;;;;;;;;;;;;;-1.42;48.55;101092.20;1657187;85;20250;-72
2021/04/27 01:35:48;;;;;;;;;;;;;;;-1.47;48.61;101094.96;1639399;85;20255;-72
2021/04/27 01:38:15;;;;;;;;;;;;;;;-1.49;48.69;101093.63;1652597;84;20269;-72
2021/04/27 01:40:42;;;;;;;;;;;;;;;-1.48;48.69;101089.42;1668700;84;20271;-72
2021/04/27 01:43:11;;;;;;;;;;;;;;;-1.50;48.69;101090.63;1672460;84;20163;-72
2021/04/27 01:45:37;;;;;;;;;;;;;;;-1.53;48.79;101085.44;1661446;85;20269;-72
2021/04/27 01:48:04;;;;;;;;;;;;;;;-1.55;48.85;101083.64;1657774;84;20186;-72
2021/04/27 01:50:30;;;;;;;;;;;;;;;-1.56;48.92;101078.14;1688796;84;20138;-72
2021/04/27 01:52:56;;;;;;;;;;;;;;;-1.58;48.97;101082.28;1669603;84;20269;-72
2021/04/27 01:55:23;;;;;;;;;;;;;;;-1.61;48.95;101079.62;1686527;84;20162;-72
2021/04/27 01:57:49;;;;;;;;;;;;;;;-1.61;48.96;101080.48;1682204;84;20254;-72
2021/04/27 02:00:19;;;;;;;;;;;;;;;-1.60;49.05;101083.89;1591576;83;5000835;-72
2021/04/27 02:02:45;;;;;;;;;;;;;;;-1.63;49.01;101075.76;1659996;85;20270;-72
2021/04/27 02:05:13;;;;;;;;;;;;;;;-1.63;49.03;101074.48;1660493;85;20180;-72
2021/04/27 02:07:39;;;;;;;;;;;;;;;-1.66;49.12;101078.17;1654945;85;20253;-72
2021/04/27 02:10:08;;;;;;;;;;;;;;;-1.67;49.16;101079.84;1655206;85;20257;-72
2021/04/27 02:12:36;;;;;;;;;;;;;;;-1.69;49.22;101079.31;1678051;84;20452;-72
2021/04/27 02:15:03;;;;;;;;;;;;;;;-1.73;49.26;101071.98;1679508;84;20269;-72
2021/04/27 02:17:42;;;;;;;;;;;;;;;-1.73;49.33;101073.65;1667859;84;20266;-72
2021/04/27 02:20:09;;;;;;;;;;;;;;;-1.74;49.38;101074.45;1668493;84;20257;-72
2021/04/27 02:22:35;;;;;;;;;;;;;;;-1.78;49.36;101077.27;1663559;85;20267;-72
2021/04/27 02:25:02;;;;;;;;;;;;;;;-1.78;49.42;101067.53;1677575;84;20453;-72
2021/04/27 02:27:30;;;;;;;;;;;;;;;-1.79;49.41;101065.39;1651394;85;20264;-72
2021/04/27 02:29:56;;;;;;;;;;;;;;;-1.81;49.44;101066.13;1693857;84;20276;-72
2021/04/27 02:32:22;;;;;;;;;;;;;;;-1.82;49.46;101068.20;1658767;84;20263;-72
2021/04/27 02:34:49;;;;;;;;;;;;;;;-1.86;49.57;101062.14;1692664;84;20253;-72
2021/04/27 02:37:17;;;;;;;;;;;;;;;-1.86;49.74;101063.81;1676514;84;20275;-72
2021/04/27 02:39:43;;;;;;;;;;;;;;;-1.92;49.67;101061.02;1659523;84;20285;-72
2021/04/27 02:42:09;;;;;;;;;;;;;;;-1.96;49.77;101061.70;1672632;84;20271;-72
2021/04/27 02:44:36;;;;;;;;;;;;;;;-1.96;49.87;101061.30;1659152;84;20297;-72
2021/04/27 02:47:03;;;;;;;;;;;;;;;-1.99;49.84;101066.23;1700749;83;20168;-72
2021/04/27 02:49:29;;;;;;;;;;;;;;;-2.03;49.81;101068.18;1662171;84;20288;-72
2021/04/27 02:51:56;;;;;;;;;;;;;;;-2.06;49.85;101061.31;1648817;85;20306;-72
2021/04/27 02:54:22;;;;;;;;;;;;;;;-2.05;49.96;101068.52;1674495;85;20302;-72
2021/04/27 02:56:48;;;;;;;;;;;;;;;-2.05;50.05;101069.38;1672115;84;20249;-72
2021/04/27 02:59:14;;;;;;;;;;;;;;;-2.08;49.99;101068.42;1665132;85;20490;-72
2021/04/27 03:01:40;;;;;;;;;;;;;;;-2.11;50.11;101072.09;1675123;84;20266;-72
2021/04/27 03:04:08;;;;;;;;;;;;;;;-2.15;50.22;101076.16;1686333;84;20600;-72
2021/04/27 03:06:35;;;;;;;;;;;;;;;-2.21;50.15;101075.90;1676123;84;20258;-72
2021/04/27 03:09:01;;;;;;;;;;;;;;;-2.27;50.20;101079.83;1670557;84;20458;-72
2021/04/27 03:11:28;;;;;;;;;;;;;;;-2.36;50.55;101076.50;1680069;85;20289;-72
2021/04/27 03:13:54;;;;;;;;;;;;;;;-2.47;50.67;101084.90;1626984;86;20253;-72
2021/04/27 03:16:21;;;;;;;;;;;;;;;-2.57;50.79;101084.42;1634623;87;20825;-72
2021/04/27 03:18:47;;;;;;;;;;;;;;;-2.61;51.03;101081.32;1669436;85;20282;-72
2021/04/27 03:21:13;;;;;;;;;;;;;;;-2.54;50.95;101075.30;1650157;85;20303;-72
2021/04/27 03:23:39;;;;;;;;;;;;;;;-2.45;50.99;101082.43;1672811;84;20231;-72
2021/04/27 03:26:09;;;;;;;;;;;;;;;-2.45;51.02;101078.23;1667582;84;20265;-72
2021/04/27 03:28:35;;;;;;;;;;;;;;;-2.42;50.92;101082.56;1693887;82;20766;-72
2021/04/27 03:31:03;;;;;;;;;;;;;;;-2.36;50.89;101081.56;1676736;83;20744;-72
2021/04/27 03:33:29;;;;;;;;;;;;;;;-2.34;50.88;101079.97;1673883;85;20256;-72
2021/04/27 03:35:55;;;;;;;;;;;;;;;-2.34;50.86;101077.03;1635983;86;20187;-72
2021/04/27 03:38:21;;;;;;;;;;;;;;;-2.31;50.94;101081.37;1620149;87;20296;-72
2021/04/27 03:40:57;;;;;;;;;;;;;;;-2.27;50.94;101084.50;1684913;84;20273;-72
2021/04/27 03:43:23;;;;;;;;;;;;;;;-2.26;50.99;101086.63;1651206;85;20541;-72
2021/04/27 03:45:52;;;;;;;;;;;;;;;-2.25;50.96;101083.30;1677690;84;20188;-72
2021/04/27 03:48:20;;;;;;;;;;;;;;;-2.26;50.99;101084.97;1677790;84;20277;-72
2021/04/27 03:50:49;;;;;;;;;;;;;;;-2.23;51.00;101084.23;1656367;84;20562;-72
2021/04/27 03:53:15;;;;;;;;;;;;;;;-2.23;50.98;101080.03;1680328;84;20469;-72
2021/04/27 03:55:44;;;;;;;;;;;;;;;-2.24;50.99;101081.23;1656824;85;20324;-72
2021/04/27 03:58:10;;;;;;;;;;;;;;;-2.24;51.05;101080.83;1651409;85;20206;-72
2021/04/27 04:00:39;;;;;;;;;;;;;;;-2.21;51.06;101083.90;1670353;84;20259;-72
2021/04/27 04:03:05;;;;;;;;;;;;;;;-2.22;51.08;101083.43;1675030;84;20256;-72
2021/04/27 04:05:31;;;;;;;;;;;;;;;-2.19;51.14;101081.89;1687532;84;20276;-72
2021/04/27 04:07:58;;;;;;;;;;;;;;;-2.10;51.25;101078.89;1632906;87;20229;-72
2021/04/27 04:10:24;;;;;;;;;;;;;;;-2.03;51.28;101089.31;1682617;84;20290;-72
2021/04/27 04:12:51;;;;;;;;;;;;;;;-1.92;51.50;101087.23;1705059;84;20286;-75
2021/04/27 04:15:19;;;;;;;;;;;;;;;-1.76;51.55;101092.13;1691977;84;20556;-73
2021/04/27 04:17:54;;;;;;;;;;;;;;;-1.60;51.65;101096.16;1693166;84;20159;-72
2021/04/27 04:20:22;;;;;;;;;;;;;;;-1.48;51.57;101097.89;1684564;84;20256;-72
2021/04/27 04:22:49;;;;;;;;;;;;;;;-1.41;51.63;101101.14;1631874;85;20268;-72
2021/04/27 04:25:18;;;;;;;;;;;;;;;-1.35;51.60;101098.85;1651503;85;20266;-72
2021/04/27 04:27:44;;;;;;;;;;;;;;;-1.34;51.63;101099.72;1632997;85;20295;-72
2021/04/27 04:30:19;;;;;;;;;;;;;;;-1.29;51.75;101105.84;1636098;85;20280;-72
2021/04/27 04:32:46;;;;;;;;;;;;;;;-1.24;51.83;101111.96;1629540;87;20308;-72
2021/04/27 04:35:14;;;;;;;;;;;;;;;-1.30;51.85;101110.45;1637986;85;20846;-72
2021/04/27 04:37:41;;;;;;;;;;;;;;;-1.34;51.89;101109.46;1608905;87;20318;-78
2021/04/27 04:40:09;;;;;;;;;;;;;;;-1.43;51.99;101114.17;1642499;85;20317;-77
2021/04/27 04:42:35;;;;;;;;;;;;;;;-1.45;52.29;101109.84;1648151;85;20288;-77
2021/04/27 04:45:01;;;;;;;;;;;;;;;-1.34;52.59;101109.46;1649277;85;20732;-77
2021/04/27 04:47:27;;;;;;;;;;;;;;;-1.15;52.70;101114.86;1671312;84;20275;-77
2021/04/27 04:50:00;;;;;;;;;;;;;;;-0.98;52.64;101118.02;1612406;87;32826;-77
2021/04/27 04:52:27;;;;;;;;;;;;;;;-0.82;52.67;101111.86;1680345;84;20804;-77
2021/04/27 04:54:53;;;;;;;;;;;;;;;-0.69;52.68;101115.33;1651632;85;20255;-77
2021/04/27 04:57:20;;;;;;;;;;;;;;;-0.61;52.63;101110.53;1647314;85;20275;-77
2021/04/27 04:59:46;;;;;;;;;;;;;;;-0.51;52.80;101113.44;1682961;84;20254;-77
2021/04/27 05:02:12;;;;;;;;;;;;;;;-0.37;52.93;101112.67;1676761;84;20295;-77
2021/04/27 05:04:38;;;;;;;;;;;;;;;-0.11;53.14;101109.38;1645564;85;20209;-72
2021/04/27 05:07:07;;;;;;;;;;;;;;;0.29;53.48;101109.03;1655704;85;20207;-72
2021/04/27 05:09:32;;;;;;;;;;;;;;;0.83;53.52;101110.73;1646072;85;20277;-72
2021/04/27 05:11:58;;;;;;;;;;;;;;;1.47;53.81;101110.10;1636622;85;20169;-72
2021/04/27 05:14:24;;;;;;;;;;;;;;;2.31;53.92;101109.36;1650415;85;20194;-72
2021/04/27 05:16:51;;;;;;;;;;;;;;;3.14;53.60;101110.45;1651839;85;20186;-73
2021/04/27 05:19:18;;;;;;;;;;;;;;;4.00;53.60;101111.75;1660734;85;20430;-73
2021/04/27 05:21:44;;;;;;;;;;;;;;;4.70;52.94;101108.21;1675563;85;20261;-73
2021/04/27 05:24:10;;;;;;;;;;;;;;;5.35;53.05;101106.58;1660341;85;20257;-73
2021/04/27 05:26:37;;;;;;;;;;;;;;;5.92;52.66;101101.30;1654880;85;20162;-73
2021/04/27 05:29:03;;;;;;;;;;;;;;;6.46;52.36;101105.22;1660781;85;20301;-72
2021/04/27 05:31:29;;;;;;;;;;;;;;;7.01;52.57;101109.89;1672086;85;20277;-73
2021/04/27 05:33:56;;;;;;;;;;;;;;;7.66;52.59;101101.20;1671356;85;20274;-73
2021/04/27 05:36:22;;;;;;;;;;;;;;;8.29;52.08;101100.91;1672259;85;20171;-73
2021/04/27 05:38:48;;;;;;;;;;;;;;;8.81;52.00;101106.94;1675807;84;20251;-72
2021/04/27 05:41:14;;;;;;;;;;;;;;;9.24;52.04;101110.70;1654739;85;20735;-73
2021/04/27 05:43:40;;;;;;;;;;;;;;;9.63;51.93;101104.53;1633311;87;20295;-72
2021/04/27 05:46:07;;;;;;;;;;;;;;;9.88;51.50;101104.80;1678857;85;20411;-72
2021/04/27 05:48:34;;;;;;;;;;;;;;;10.36;51.41;101113.17;1628111;87;20328;-72
2021/04/27 05:51:00;;;;;;;;;;;;;;;10.65;51.21;101111.63;1673689;85;20557;-73
2021/04/27 05:53:26;;;;;;;;;;;;;;;10.98;51.36;101116.05;1642906;85;20301;-73
2021/04/27 05:55:52;;;;;;;;;;;;;;;11.14;51.24;101120.20;1674382;85;20279;-73
2021/04/27 05:58:19;;;;;;;;;;;;;;;11.21;50.85;101111.06;1656717;85;20312;-74
2021/04/27 06:00:45;;;;;;;;;;;;;;;11.30;51.11;101113.98;1635970;85;20518;-73
2021/04/27 06:03:11;;;;;;;;;;;;;;;11.59;51.09;101110.59;1654952;85;20317;-73
2021/04/27 06:05:37;;;;;;;;;;;;;;;11.90;50.89;101112.40;1634106;87;20321;-73
2021/04/27 06:08:04;;;;;;;;;;;;;;;12.06;50.85;101110.86;1658728;85;20309;-73
2021/04/27 06:10:32;;;;;;;;;;;;;;;12.34;50.58;101108.73;1633493;87;20340;-74
2021/04/27 06:12:58;;;;;;;;;;;;;;;12.57;50.50;101116.98;1655856;85;20300;-73
2021/04/27 06:15:24;;;;;;;;;;;;;;;12.71;50.29;101111.13;1645142;85;20274;-73
2021/04/27 06:17:51;;;;;;;;;;;;;;;12.77;50.09;101112.76;1671661;85;20284;-73
2021/04/27 06:20:17;;;;;;;;;;;;;;;12.94;50.01;101114.63;1663899;85;20315;-73
2021/04/27 06:22:43;;;;;;;;;;;;;;;13.08;50.10;101118.24;1702283;84;20171;-73
2021/04/27 06:25:11;;;;;;;;;;;;;;;13.22;50.02;101113.24;1694832;84;20259;-73
2021/04/27 06:27:37;;;;;;;;;;;;;;;13.47;50.01;101112.77;1699963;84;20250;-73
2021/04/27 06:30:05;;;;;;;;;;;;;;;13.75;49.99;101111.30;1664215;85;20446;-73
2021/04/27 06:32:31;;;;;;;;;;;;;;;14.05;49.88;101111.48;1698315;84;20562;-73
2021/04/27 06:34:57;;;;;;;;;;;;;;;14.30;49.57;101114.39;1690095;84;20799;-73
2021/04/27 06:37:23;;;;;;;;;;;;;;;14.34;49.42;101111.69;1693419;84;20709;-73
2021/04/27 06:39:49;;;;;;;;;;;;;;;14.17;49.30;101109.47;1693903;83;20271;-74
2021/04/27 06:42:15;;;;;;;;;;;;;;;13.91;49.34;101107.48;1683553;84;20741;-73
2021/04/27 06:44:41;;;;;;;;;;;;;;;14.00;49.69;101109.47;1689084;84;20287;-73
2021/04/27 06:47:09;;;;;;;;;;;;;;;14.30;49.38;101106.59;1680037;84;20266;-74
2021/04/27 06:49:35;;;;;;;;;;;;;;;14.39;49.31;101112.44;1664777;85;20263;-73
2021/04/27 06:52:01;;;;;;;;;;;;;;;14.62;49.35;101108.42;1639386;85;20281;-73
2021/04/27 06:54:27;;;;;;;;;;;;;;;14.88;49.33;101115.99;1631027;85;20298;-74
2021/04/27 06:56:53;;;;;;;;;;;;;;;15.15;49.38;101111.78;1638376;85;20270;-73
2021/04/27 06:59:21;;;;;;;;;;;;;;;15.38;49.23;101115.52;1640460;85;20818;-73
2021/04/27 07:01:48;;;;;;;;;;;;;;;15.54;49.17;101107.22;1634418;86;20273;-73
2021/04/27 07:04:14;;;;;;;;;;;;;;;15.64;49.27;101109.12;1614932;86;20194;-74
2021/04/27 07:06:40;;;;;;;;;;;;;;;15.73;49.18;101112.77;1639914;86;20274;-73
2021/04/27 07:09:06;;;;;;;;;;;;;;;15.73;49.13;101115.37;1655582;86;20723;-74
2021/04/27 07:11:32;;;;;;;;;;;;;;;15.69;48.85;101111.14;1654122;86;20747;-74
2021/04/27 07:13:59;;;;;;;;;;;;;;;15.75;48.62;101107.05;1631231;86;20288;-73
2021/04/27 07:16:25;;;;;;;;;;;;;;;15.74;48.90;101109.27;1647698;86;20274;-75
2021/04/27 07:18:51;;;;;;;;;;;;;;;15.44;48.51;101106.22;1648895;86;20265;-75
2021/04/27 07:21:20;;;;;;;;;;;;;;;15.52;48.31;101106.86;1649909;86;20576;-74
2021/04/27 07:23:45;;;;;;;;;;;;;;;15.49;48.17;101110.41;1642765;86;20800;-74
2021/04/27 07:26:11;;;;;;;;;;;;;;;15.63;47.89;101106.55;1635543;86;20510;-73
2021/04/27 07:28:37;;;;;;;;;;;;;;;15.74;47.82;101104.50;1627752;86;20282;-73
2021/04/27 07:31:09;;;;;;;;;;;;;;;15.82;47.59;101110.34;1639045;86;20648;-73
2021/04/27 07:33:36;;;;;;;;;;;;;;;15.80;47.36;101101.70;1642933;86;20578;-74
2021/04/27 07:36:01;;;;;;;;;;;;;;;15.87;47.43;101105.84;1634225;86;20566;-74
2021/04/27 07:38:27;;;;;;;;;;;;;;;15.92;47.15;101102.64;1641397;86;20273;-74
2021/04/27 07:40:53;;;;;;;;;;;;;;;16.01;47.10;101106.73;1650776;85;20196;-74
2021/04/27 07:43:19;;;;;;;;;;;;;;;16.15;46.88;101101.91;1660779;85;20194;-74
2021/04/27 07:45:48;;;;;;;;;;;;;;;16.25;46.81;101102.48;1643544;85;20258;-74
2021/04/27 07:48:14;;;;;;;;;;;;;;;16.32;46.42;101104.84;1658087;84;20835;-74
2021/04/27 07:50:39;;;;;;;;;;;;;;;16.27;46.38;101109.81;1661943;85;20200;-74
2021/04/27 07:53:05;;;;;;;;;;;;;;;16.23;46.50;101104.69;1674332;85;20174;-74
2021/04/27 07:55:32;;;;;;;;;;;;;;;16.44;46.40;101104.91;1670058;85;20274;-75
2021/04/27 07:57:58;;;;;;;;;;;;;;;16.45;46.15;101103.55;1658392;85;20562;-74
2021/04/27 08:00:24;;;;;;;;;;;;;;;16.33;45.88;101104.40;1673984;85;20265;-74
2021/04/27 08:02:51;;;;;;;;;;;;;;;16.25;45.65;101104.64;1643171;86;20370;-74
2021/04/27 08:05:20;;;;;;;;;;;;;;;15.93;45.47;101107.41;1674509;85;20493;-74
2021/04/27 08:07:49;;;;;;;;;;;;;;;15.70;45.63;101107.64;1633582;85;20267;-74
2021/04/27 08:10:15;;;;;;;;;;;;;;;15.44;45.44;101112.73;1676250;85;20262;-75
2021/04/27 08:12:43;;;;;;;;;;;;;;;15.17;45.28;101104.78;1653290;85;20342;-75
2021/04/27 08:15:10;;;;;;;;;;;;;;;15.06;45.29;101112.50;1661923;85;20247;-74
2021/04/27 08:17:36;;;;;;;;;;;;;;;14.96;45.09;101110.59;1661907;85;20173;-74
2021/04/27 08:20:05;;;;;;;;;;;;;;;14.84;45.17;101109.59;1657872;85;20267;-75
2021/04/27 08:22:31;;;;;;;;;;;;;;;14.92;45.59;101107.66;1660665;85;20854;-74
2021/04/27 08:24:56;;;;;;;;;;;;;;;14.99;44.91;101110.51;1655567;85;20680;-74
2021/04/27 08:27:23;;;;;;;;;;;;;;;15.20;44.72;101109.05;1638012;86;20752;-74
2021/04/27 08:29:49;;;;;;;;;;;;;;;15.37;44.75;101106.84;1624082;86;20213;-75
2021/04/27 08:32:15;;;;;;;;;;;;;;;15.29;44.70;101104.04;1650839;86;20184;-74
2021/04/27 08:34:40;;;;;;;;;;;;;;;15.19;44.43;101104.73;1652533;85;20208;-74
2021/04/27 08:37:06;;;;;;;;;;;;;;;14.84;44.01;101109.16;1629530;86;20342;-74
2021/04/27 08:39:32;;;;;;;;;;;;;;;14.43;44.09;101106.30;1662001;85;20426;-74
2021/04/27 08:41:58;;;;;;;;;;;;;;;14.05;43.90;101107.14;1649920;85;20288;-74
2021/04/27 08:44:24;;;;;;;;;;;;;;;13.86;43.80;101112.37;1641667;85;20287;-74
2021/04/27 08:46:50;;;;;;;;;;;;;;;14.20;43.62;101109.84;1653541;85;20303;-74
2021/04/27 08:49:16;;;;;;;;;;;;;;;14.80;43.48;101111.42;1637042;85;20536;-73
2021/04/27 08:51:42;;;;;;;;;;;;;;;15.17;43.69;101106.08;1641884;85;20788;-73
2021/04/27 08:54:09;;;;;;;;;;;;;;;15.64;43.77;101101.30;1640191;85;20493;-73
2021/04/27 08:56:38;;;;;;;;;;;;;;;16.06;44.06;101109.60;1637690;85;20517;-73
2021/04/27 08:59:05;;;;;;;;;;;;;;;16.34;43.98;101101.73;1648783;85;20244;-73
2021/04/27 09:01:31;;;;;;;;;;;;;;;16.45;44.02;101093.56;1644910;85;20630;-73
2021/04/27 09:03:59;;;;;;;;;;;;;;;16.48;43.96;101100.84;1657463;84;20261;-73
2021/04/27 09:06:25;;;;;;;;;;;;;;;16.46;43.70;101101.80;1649242;85;20289;-73
2021/04/27 09:08:56;;;;;;;;;;;;;;;16.19;43.66;101100.47;1676272;85;20541;-73
2021/04/27 09:11:31;;;;;;;;;;;;;;;15.84;43.62;101105.93;1674868;84;20472;-73
2021/04/27 09:14:19;;;;;;;;;;;;;;;15.29;43.26;101102.29;1673449;84;20269;-73
2021/04/27 09:16:49;;;;;;;;;;;;;;;14.64;43.06;101109.24;1676894;84;20266;-73
2021/04/27 09:19:33;;;;;;;;;;;;;;;14.06;42.75;101101.05;1662780;83;20188;-74
2021/04/27 09:22:22;;;;;;;;;;;;;;;13.31;42.16;101100.52;1647330;85;20259;-73
2021/04/27 09:25:03;;;;;;;;;;;;;;;12.69;42.27;101096.02;1652785;82;20297;-73
2021/04/27 09:27:38;;;;;;;;;;;;;;;12.20;41.99;101096.83;1658683;85;20269;-73
2021/04/27 09:30:13;;;;;;;;;;;;;;;11.89;41.75;101092.55;1685789;84;20257;-73
2021/04/27 09:32:42;;;;;;;;;;;;;;;11.66;41.73;101084.19;1661661;85;20279;-73
2021/04/27 09:35:27;;;;;;;;;;;;;;;11.57;41.65;101084.30;1660331;85;20320;-74
2021/04/27 09:38:17;;;;;;;;;;;;;;;11.53;42.07;101080.89;1648685;85;20258;-74
2021/04/27 09:40:57;;;;;;;;;;;;;;;11.42;41.68;101079.34;1668891;84;20253;-73
2021/04/27 09:43:39;;;;;;;;;;;;;;;11.40;41.25;101078.50;1710601;83;20254;-73
2021/04/27 09:46:08;;;;;;;;;;;;;;;11.35;41.69;101075.11;1688609;84;20170;-73
2021/04/27 09:48:43;;;;;;;;;;;;;;;11.34;41.08;101066.92;1698465;83;20265;-73
2021/04/27 09:51:19;;;;;;;;;;;;;;;11.16;41.02;101076.61;1700886;83;20278;-73
2021/04/27 09:53:56;;;;;;;;;;;;;;;11.04;41.15;101072.85;1709048;83;20262;-73
2021/04/27 09:56:49;;;;;;;;;;;;;;;11.02;41.02;101071.16;1703727;81;20257;-73
2021/04/27 09:59:31;;;;;;;;;;;;;;;11.03;40.88;101081.48;1665477;84;20249;-73
2021/04/27 10:02:05;;;;;;;;;;;;;;;10.99;40.62;101077.22;1683012;83;20186;-73
2021/04/27 10:04:28;;;;;;;;;;;;;;;10.91;40.57;101075.17;1700671;81;20251;-73
2021/04/27 10:06:55;;;;;;;;;;;;;;;10.94;40.72;101070.80;1711765;83;20188;-73
2021/04/27 10:09:21;;;;;;;;;;;;;;;11.00;40.56;101065.14;1714361;83;20251;-73
2021/04/27 10:11:48;;;;;;;;;;;;;;;11.01;40.49;101061.23;1697167;83;20178;-73
2021/04/27 10:14:14;;;;;;;;;;;;;;;10.99;40.30;101057.81;1716558;83;20245;-73
2021/04/27 10:16:40;;;;;;;;;;;;;;;10.88;40.21;101057.09;1707277;83;20466;-73
2021/04/27 10:19:08;;;;;;;;;;;;;;;10.90;40.39;101055.34;1706007;83;20238;-73
2021/04/27 10:21:34;;;;;;;;;;;;;;;10.90;40.34;101047.59;1710935;83;20541;-73
2021/04/27 10:24:03;;;;;;;;;;;;;;;10.94;40.59;101053.12;1678947;84;20438;-73
2021/04/27 10:26:30;;;;;;;;;;;;;;;11.06;40.20;101046.52;1684241;84;20258;-73
2021/04/27 10:29:04;;;;;;;;;;;;;;;11.10;40.20;101045.61;1697226;83;20297;-73
2021/04/27 10:31:33;;;;;;;;;;;;;;;11.08;39.97;101039.59;1678196;84;20485;-73
2021/04/27 10:34:05;;;;;;;;;;;;;;;10.95;39.75;101038.02;1715665;83;20175;-73
2021/04/27 10:36:34;;;;;;;;;;;;;;;10.88;39.89;101041.57;1682799;84;20268;-73
2021/04/27 10:39:07;;;;;;;;;;;;;;;10.79;39.91;101034.76;1702916;83;20250;-74
2021/04/27 10:41:50;;;;;;;;;;;;;;;10.86;40.07;101035.55;1701058;82;20594;-73
2021/04/27 10:44:17;;;;;;;;;;;;;;;10.97;40.03;101029.80;1678819;84;20477;-73
2021/04/27 10:46:44;;;;;;;;;;;;;;;11.08;39.98;101018.89;1691902;84;20878;-73
2021/04/27 10:49:23;;;;;;;;;;;;;;;11.20;39.92;101015.30;1689122;84;20270;-75
2021/04/27 10:51:52;;;;;;;;;;;;;;;11.26;39.79;101017.82;1704224;84;20645;-75
2021/04/27 10:54:21;;;;;;;;;;;;;;;11.33;39.79;101015.58;1702766;84;20278;-75
2021/04/27 10:57:02;;;;;;;;;;;;;;;11.28;39.47;101008.30;1686287;84;20256;-75
2021/04/27 10:59:31;;;;;;;;;;;;;;;11.23;39.72;101008.36;1661560;85;20267;-75
2021/04/27 11:02:15;;;;;;;;;;;;;;;11.32;39.99;101003.50;1672787;85;20258;-75
2021/04/27 11:04:43;;;;;;;;;;;;;;;11.44;39.77;101005.91;1671038;85;20296;-75
2021/04/27 11:07:25;;;;;;;;;;;;;;;11.53;39.75;100995.42;1668501;85;20261;-75
2021/04/27 11:10:06;;;;;;;;;;;;;;;11.68;39.72;100993.06;1677417;85;20271;-75
2021/04/27 11:12:42;;;;;;;;;;;;;;;11.79;39.72;100991.64;1654740;85;20256;-77
2021/04/27 11:15:20;;;;;;;;;;;;;;;11.90;39.89;100982.83;1672042;85;20262;-77
2021/04/27 11:18:08;;;;;;;;;;;;;;;11.93;39.49;100987.97;1669079;85;20274;-77
2021/04/27 11:20:59;;;;;;;;;;;;;;;11.84;39.32;100980.77;1649199;87;20285;-78
2021/04/27 11:23:40;;;;;;;;;;;;;;;11.74;39.25;100985.20;1653103;84;683370;-77
2021/04/27 11:26:26;;;;;;;;;;;;;;;11.70;39.28;100981.38;1644284;85;20268;-77
2021/04/27 11:28:57;;;;;;;;;;;;;;;11.72;39.39;100976.59;1691088;84;20285;-77
2021/04/27 11:31:23;;;;;;;;;;;;;;;11.69;39.24;100981.82;1649345;85;20281;-76
2021/04/27 11:34:00;;;;;;;;;;;;;;;11.72;39.45;100983.07;1648075;85;20246;-76
2021/04/27 11:36:37;;;;;;;;;;;;;;;11.87;39.58;100975.55;1671921;84;20195;-76
2021/04/27 11:39:16;;;;;;;;;;;;;;;12.06;39.48;100976.08;1654926;85;20285;-76
2021/04/27 11:41:45;;;;;;;;;;;;;;;12.17;39.58;100976.76;1668727;84;20260;-77
2021/04/27 11:44:11;;;;;;;;;;;;;;;12.32;39.49;100967.42;1692333;84;20263;-77
2021/04/27 11:47:07;;;;;;;;;;;;;;;12.43;39.47;100971.98;1693473;84;20264;-77
2021/04/27 11:49:54;;;;;;;;;;;;;;;12.48;39.49;100975.31;1662409;84;20168;-77
2021/04/27 11:52:38;;;;;;;;;;;;;;;12.49;39.09;100978.77;1651022;85;20277;-77
2021/04/27 11:55:14;;;;;;;;;;;;;;;12.31;38.93;100964.41;1640547;85;20309;-77
2021/04/27 11:57:43;;;;;;;;;;;;;;;12.17;39.00;100959.91;1629036;85;20476;-77
2021/04/27 12:00:11;;;;;;;;;;;;;;;12.03;38.95;100953.66;1646258;85;20550;-77
2021/04/27 12:02:36;;;;;;;;;;;;;;;11.95;39.07;100949.51;1634444;85;20751;-77
2021/04/27 12:05:03;;;;;;;;;;;;;;;11.99;39.29;100940.77;1681411;84;20254;-77
2021/04/27 12:07:29;;;;;;;;;;;;;;;12.13;39.37;100941.39;1687226;84;20259;-77
2021/04/27 12:09:57;;;;;;;;;;;;;;;12.35;39.37;100945.77;1644644;85;20273;-77
2021/04/27 12:12:24;;;;;;;;;;;;;;;12.42;39.20;100944.34;1638869;85;20527;-77
2021/04/27 12:14:56;;;;;;;;;;;;;;;12.29;38.86;100940.69;1650169;85;20265;-77
2021/04/27 12:17:24;;;;;;;;;;;;;;;12.21;39.09;100947.30;1650994;86;20274;-77
2021/04/27 12:20:17;;;;;;;;;;;;;;;12.07;38.84;100945.39;1618208;87;20261;-77
2021/04/27 12:22:49;;;;;;;;;;;;;;;11.93;38.94;100943.91;1638442;85;20167;-73
2021/04/27 12:25:19;;;;;;;;;;;;;;;11.89;38.96;100949.16;1659279;85;20895;-73
2021/04/27 12:27:45;;;;;;;;;;;;;;;11.91;38.75;100948.70;1665113;85;20271;-73
2021/04/27 12:30:16;;;;;;;;;;;;;;;11.83;38.83;100950.55;1662415;85;20297;-72
2021/04/27 12:32:44;;;;;;;;;;;;;;;11.78;38.85;100946.74;1648991;85;20270;-73
2021/04/27 12:35:22;;;;;;;;;;;;;;;11.81;38.89;100944.10;1667968;85;20256;-73
2021/04/27 12:38:12;;;;;;;;;;;;;;;11.91;38.84;100937.89;1670423;85;20539;-73
2021/04/27 12:40:44;;;;;;;;;;;;;;;11.97;38.77;100939.50;1662119;85;20283;-73
2021/04/27 12:43:13;;;;;;;;;;;;;;;11.90;38.75;100941.81;1671322;83;20800;-73
2021/04/27 12:45:56;;;;;;;;;;;;;;;11.90;38.76;100930.14;1671534;85;20171;-73
2021/04/27 12:48:22;;;;;;;;;;;;;;;11.91;38.66;100934.45;1660614;85;20294;-73